createdAt,value
2017-03-25T00:18:12.447Z,0
2017-03-25T00:28:23.794Z,0
2017-03-25T00:38:35.202Z,0
2017-03-25T00:48:46.582Z,0
2017-03-25T00:58:57.984Z,0
2017-03-25T01:09:09.343Z,0
2017-03-25T01:19:20.759Z,0
2017-03-25T01:29:32.209Z,0
2017-03-25T01:39:43.717Z,0
2017-03-25T01:49:55.172Z,0
2017-03-25T02:00:06.656Z,0
2017-03-25T02:10:18.146Z,0
2017-03-25T02:20:29.610Z,0
2017-03-25T02:30:41.118Z,0
2017-03-25T02:40:52.621Z,0
2017-03-25T02:51:04.158Z,0
2017-03-25T03:01:15.742Z,0
2017-03-25T03:11:27.268Z,0
2017-03-25T03:21:38.796Z,0
2017-03-25T03:31:50.394Z,0
2017-03-25T03:42:01.990Z,0
2017-03-25T03:52:13.638Z,0
2017-03-25T04:02:25.276Z,0
2017-03-25T04:12:36.919Z,0
2017-03-25T04:22:48.564Z,0
2017-03-25T04:33:00.231Z,0
2017-03-25T04:43:11.906Z,0
2017-03-25T04:53:23.633Z,0
2017-03-25T05:03:35.412Z,0
2017-03-25T05:13:47.143Z,5
2017-03-25T05:23:58.876Z,20
2017-03-25T05:34:10.576Z,45
2017-03-25T05:44:22.270Z,70
2017-03-25T05:54:33.909Z,90
2017-03-25T06:04:45.524Z,125
2017-03-25T06:14:57.099Z,180
2017-03-25T06:25:08.528Z,240
2017-03-25T06:35:19.854Z,320
2017-03-25T06:45:31.002Z,455
2017-03-25T06:55:42.019Z,625
2017-03-25T07:05:52.870Z,805
2017-03-25T07:16:03.512Z,960
2017-03-25T07:26:13.918Z,1135
2017-03-25T07:36:24.114Z,1280
2017-03-25T07:46:34.108Z,1430
2017-03-25T07:56:43.906Z,1550
2017-03-25T08:06:53.436Z,1605
2017-03-25T08:17:02.825Z,1775
2017-03-25T08:27:12.119Z,1910
2017-03-25T08:37:21.328Z,2120
2017-03-25T08:47:30.541Z,2135
2017-03-25T08:57:39.689Z,2320
2017-03-25T09:07:48.766Z,2395
2017-03-25T09:17:57.719Z,2585
2017-03-25T09:28:06.635Z,2640
2017-03-25T09:38:15.551Z,2835
2017-03-25T09:48:24.418Z,2655
2017-03-25T09:58:33.266Z,2900
2017-03-25T10:08:42.102Z,3075
2017-03-25T10:18:50.982Z,2975
2017-03-25T10:28:59.902Z,3305
2017-03-25T10:39:08.779Z,2980
2017-03-25T10:49:17.581Z,3390
2017-03-25T10:59:26.267Z,3370
2017-03-25T11:09:35.044Z,3355
2017-03-25T11:19:43.832Z,3390
2017-03-25T11:29:52.655Z,3015
2017-03-25T11:40:01.807Z,3105
2017-03-25T11:50:10.261Z,3125
2017-03-25T12:00:19.091Z,3160
2017-03-25T12:10:27.886Z,3115
2017-03-25T12:20:36.691Z,3115
2017-03-25T12:30:45.445Z,3020
2017-03-25T12:40:54.151Z,2860
2017-03-25T12:51:02.807Z,2795
2017-03-25T13:01:11.402Z,2925
2017-03-25T13:11:20.006Z,2685
2017-03-25T13:21:28.629Z,2515
2017-03-25T13:31:37.219Z,2630
2017-03-25T13:41:45.745Z,2575
2017-03-25T13:51:54.241Z,2370
2017-03-25T14:02:02.793Z,2255
2017-03-25T14:12:11.314Z,2065
2017-03-25T14:22:19.850Z,1840
2017-03-25T14:32:28.496Z,1715
2017-03-25T14:42:37.172Z,1735
2017-03-25T14:52:45.894Z,2035
2017-03-25T15:02:54.608Z,1690
2017-03-25T15:13:03.360Z,1420
2017-03-25T15:23:12.193Z,1220
2017-03-25T15:33:21.034Z,1190
2017-03-25T15:43:29.941Z,1015
2017-03-25T15:53:39.010Z,390
2017-03-25T16:03:48.470Z,345
2017-03-25T16:13:58.106Z,310
2017-03-25T16:24:07.825Z,275
2017-03-25T16:34:17.676Z,240
2017-03-25T16:44:27.592Z,210
2017-03-25T16:54:37.520Z,190
2017-03-25T17:04:47.426Z,190
2017-03-25T17:14:57.366Z,120
2017-03-25T17:25:07.497Z,85
2017-03-25T17:35:17.733Z,55
2017-03-25T17:45:28.078Z,30
2017-03-25T17:55:38.409Z,10
2017-03-25T18:05:48.833Z,0
2017-03-25T18:15:59.354Z,0
2017-03-25T18:26:09.911Z,0
2017-03-25T18:36:20.517Z,0
2017-03-25T18:46:31.169Z,0
2017-03-25T18:56:41.817Z,0
2017-03-25T19:06:52.489Z,0
2017-03-25T19:17:03.197Z,0
2017-03-25T19:27:13.999Z,0
2017-03-25T19:37:24.669Z,0
2017-03-25T19:47:35.471Z,0
2017-03-25T19:57:46.234Z,0
2017-03-25T20:07:57.111Z,0
2017-03-25T20:18:08.002Z,0
2017-03-25T20:28:18.873Z,0
2017-03-25T20:38:29.795Z,0
2017-03-25T20:48:40.749Z,0
2017-03-25T20:58:51.728Z,0
2017-03-25T21:09:02.743Z,0
2017-03-25T21:19:14.162Z,0
2017-03-25T21:29:24.909Z,0
2017-03-25T21:39:35.975Z,0
2017-03-25T21:49:47.084Z,0
2017-03-25T21:59:58.176Z,0
2017-03-25T22:10:09.327Z,0
2017-03-25T22:20:20.543Z,0
2017-03-25T22:30:31.741Z,0
2017-03-25T22:40:42.981Z,0
2017-03-25T22:50:54.270Z,0
2017-03-25T23:01:05.606Z,0
2017-03-25T23:11:16.879Z,0
2017-03-25T23:21:28.228Z,0
2017-03-25T23:31:39.574Z,0
2017-03-25T23:41:50.980Z,0
2017-03-25T23:52:02.386Z,0
